Time;durP1;ratioP1;P1;durP2;ratioP2;P2;SDS_P1;SDS_P2;PMS_P1;PMS_P2;Temp;Humidity;BMP_temperature;BMP_pressure;BME280_temperature;BME280_humidity;BME280_pressure;Samples;Min_cycle;Max_cycle;Signal;HPM_P1;HPM_P2
2022/07/27 00:00:41;;;;;;;22.45;18.67;;;;;;;20.64;81.76;98600.00;5050579;28;20053;-70
2022/07/27 00:03:07;;;;;;;22.08;18.20;;;;;;;20.64;81.49;98594.63;5050749;28;20040;-69
2022/07/27 00:05:32;;;;;;;23.13;19.02;;;;;;;20.61;81.80;98592.56;5050820;28;20422;-71
2022/07/27 00:07:58;;;;;;;21.40;17.50;;;;;;;20.60;81.56;98599.09;5050602;28;20045;-69
2022/07/27 00:10:24;;;;;;;20.70;17.33;;;;;;;20.60;81.19;98594.47;5050543;28;20068;-70
2022/07/27 00:12:49;;;;;;;21.48;17.60;;;;;;;20.58;81.38;98587.84;5050306;28;20036;-71
2022/07/27 00:15:15;;;;;;;20.33;16.95;;;;;;;20.54;81.21;98598.47;5050226;28;20542;-70
2022/07/27 00:17:41;;;;;;;20.45;17.05;;;;;;;20.55;81.33;98602.72;5050682;28;20521;-69
2022/07/27 00:20:07;;;;;;;25.17;17.80;;;;;;;20.52;81.40;98598.00;5050616;28;20122;-71
2022/07/27 00:22:33;;;;;;;19.52;17.15;;;;;;;20.50;81.22;98597.50;5050441;28;20036;-70
2022/07/27 00:24:58;;;;;;;22.75;17.98;;;;;;;20.47;81.92;98597.34;5050517;28;20453;-69
2022/07/27 00:27:24;;;;;;;23.85;18.80;;;;;;;20.43;82.19;98595.28;5050412;28;20128;-69
2022/07/27 00:29:50;;;;;;;22.88;18.50;;;;;;;20.38;82.19;98597.38;5050359;28;20056;-69
2022/07/27 00:32:15;;;;;;;26.48;18.02;;;;;;;20.26;82.67;98579.19;5064928;28;20045;-71
2022/07/27 00:34:41;;;;;;;21.50;17.83;;;;;;;20.20;82.77;98583.94;5050255;28;20482;-70
2022/07/27 00:37:07;;;;;;;21.98;18.67;;;;;;;20.23;82.94;98589.81;5049317;28;20033;-70
2022/07/27 00:39:32;;;;;;;22.08;17.42;;;;;;;20.20;82.98;98591.25;5065587;28;20071;-70
2022/07/27 00:41:58;;;;;;;22.00;17.73;;;;;;;20.18;82.80;98590.78;5050157;28;20068;-69
2022/07/27 00:44:29;;;;;;;22.60;19.95;;;;;;;20.15;83.35;98594.91;5050220;28;20045;-70
2022/07/27 00:46:55;;;;;;;22.77;18.70;;;;;;;20.13;83.25;98596.34;5052946;28;20397;-70
2022/07/27 00:49:22;;;;;;;22.30;18.98;;;;;;;20.13;83.43;98593.63;5053563;28;20382;-70
2022/07/27 00:51:49;;;;;;;22.10;19.75;;;;;;;20.13;83.65;98593.63;5053425;28;20044;-69
2022/07/27 00:54:15;;;;;;;22.73;19.52;;;;;;;20.10;83.91;98594.28;5053516;28;20053;-71
2022/07/27 00:56:41;;;;;;;23.25;19.35;;;;;;;20.09;83.92;98590.00;5053426;28;20064;-69
2022/07/27 00:59:09;;;;;;;24.23;17.90;;;;;;;20.07;83.91;98598.41;5053496;28;20110;-71
2022/07/27 01:01:35;;;;;;;21.98;18.38;;;;;;;20.09;83.71;98596.19;5052254;28;20421;-70
2022/07/27 01:04:01;;;;;;;22.50;19.33;;;;;;;20.07;83.97;98603.78;5051675;28;20045;-70
2022/07/27 01:06:27;;;;;;;23.75;18.88;;;;;;;20.04;83.86;98606.31;5053135;28;20037;-68
2022/07/27 01:09:55;;;;;;;24.98;19.13;;;;;;;20.01;83.99;98613.13;5053180;28;20425;-71
2022/07/27 01:11:40;;;;;;;22.45;18.10;;;;;;;20.00;84.20;98618.81;5052195;28;20052;-70
2022/07/27 01:14:06;;;;;;;22.73;18.42;;;;;;;19.97;84.10;98606.78;5052990;28;20129;-68
2022/07/27 01:16:32;;;;;;;21.73;18.77;;;;;;;19.95;84.25;98617.88;5053424;28;20490;-70
2022/07/27 01:18:58;;;;;;;23.65;19.38;;;;;;;19.92;84.25;98613.13;5052612;28;20044;-71
2022/07/27 01:21:23;;;;;;;24.40;19.85;;;;;;;19.90;84.65;98609.19;5053087;28;20123;-70
2022/07/27 01:23:49;;;;;;;24.80;20.40;;;;;;;19.86;84.57;98622.47;5053264;28;20045;-70
2022/07/27 01:26:15;;;;;;;21.35;19.10;;;;;;;19.87;84.73;98617.88;5052688;28;20064;-70
2022/07/27 01:28:44;;;;;;;23.20;18.45;;;;;;;19.87;84.77;98621.34;5051825;28;20470;-70
2022/07/27 01:31:10;;;;;;;23.38;18.75;;;;;;;19.87;84.78;98620.56;5051570;28;20056;-70
2022/07/27 01:33:36;;;;;;;23.63;19.25;;;;;;;19.89;84.83;98615.66;5052998;28;20040;-70
2022/07/27 01:36:01;;;;;;;21.85;17.98;;;;;;;19.92;85.35;98613.13;5053166;28;20052;-70
2022/07/27 01:38:27;;;;;;;20.95;18.67;;;;;;;19.95;84.86;98615.19;5050418;28;20456;-69
2022/07/27 01:40:53;;;;;;;25.25;18.88;;;;;;;19.98;84.48;98618.34;5051534;28;20041;-70
2022/07/27 01:43:20;;;;;;;21.58;19.13;;;;;;;20.00;84.93;98616.94;5051526;28;20056;-71
2022/07/27 01:45:46;;;;;;;27.52;19.90;;;;;;;20.03;84.95;98613.59;5053035;28;20049;-72
2022/07/27 01:48:12;;;;;;;23.33;19.77;;;;;;;20.06;85.32;98621.03;5052285;28;20494;-69
2022/07/27 01:50:38;;;;;;;25.90;20.88;;;;;;;20.10;85.70;98613.91;5052613;28;20055;-70
2022/07/27 01:53:03;;;;;;;22.10;18.70;;;;;;;20.15;84.93;98613.75;5068092;28;20056;-69
2022/07/27 01:55:29;;;;;;;23.45;20.02;;;;;;;20.27;84.92;98610.41;5034627;28;20065;-69
2022/07/27 01:57:55;;;;;;;25.20;20.88;;;;;;;20.41;84.88;98616.38;5067331;28;20041;-70
2022/07/27 02:00:20;;;;;;;25.33;20.23;;;;;;;20.56;83.96;98616.97;5052484;28;20048;-70
2022/07/27 02:02:46;;;;;;;23.75;19.45;;;;;;;20.67;82.38;98622.81;5052335;28;20044;-70
2022/07/27 02:05:12;;;;;;;24.50;20.15;;;;;;;20.77;82.02;98615.16;5067169;28;20049;-70
2022/07/27 02:07:40;;;;;;;23.85;20.48;;;;;;;20.94;80.88;98624.28;5052209;28;20079;-70
2022/07/27 02:10:08;;;;;;;21.90;19.55;;;;;;;21.09;80.29;98618.34;5050735;28;20045;-70
2022/07/27 02:12:37;;;;;;;21.92;19.60;;;;;;;21.23;79.72;98618.09;5050474;28;20172;-70
2022/07/27 02:15:24;;;;;;;22.05;18.35;;;;;;;21.42;78.51;98620.41;5051406;28;20099;-71
2022/07/27 02:17:50;;;;;;;25.33;19.15;;;;;;;21.58;77.58;98623.28;5052150;28;20071;-71
2022/07/27 02:20:19;;;;;;;26.00;19.50;;;;;;;21.73;76.77;98618.09;5051657;28;20540;-70
2022/07/27 02:22:45;;;;;;;23.42;18.88;;;;;;;21.91;75.79;98616.06;5051666;28;20063;-70
2022/07/27 02:25:12;;;;;;;23.98;19.85;;;;;;;22.05;75.49;98623.84;5052112;28;20044;-71
2022/07/27 02:27:39;;;;;;;21.17;18.95;;;;;;;22.29;74.45;98617.75;5051406;28;20490;-70
2022/07/27 02:30:07;;;;;;;21.15;18.85;;;;;;;22.44;73.85;98614.44;5051817;28;20049;-70
2022/07/27 02:32:33;;;;;;;22.63;19.02;;;;;;;22.69;73.07;98625.28;5051877;28;20048;-71
2022/07/27 02:34:59;;;;;;;20.27;18.17;;;;;;;22.97;71.53;98616.53;5051552;28;20041;-68
2022/07/27 02:37:25;;;;;;;20.73;18.50;;;;;;;23.17;70.51;98625.66;5052003;28;20043;-70
2022/07/27 02:39:51;;;;;;;21.98;19.23;;;;;;;23.29;70.12;98629.13;5050222;28;20558;-71
2022/07/27 02:42:18;;;;;;;21.25;18.65;;;;;;;23.35;69.82;98626.97;5050815;28;20418;-70
2022/07/27 02:44:43;;;;;;;22.35;18.38;;;;;;;23.44;69.46;98622.25;5051523;28;20059;-70
2022/07/27 02:47:09;;;;;;;22.73;19.35;;;;;;;23.47;69.18;98610.75;5066940;28;20056;-69
2022/07/27 02:49:35;;;;;;;23.70;18.92;;;;;;;23.62;68.87;98614.66;5049784;28;20044;-70
2022/07/27 02:52:00;;;;;;;24.02;18.73;;;;;;;23.78;68.25;98622.84;5050563;28;20045;-71
2022/07/27 02:54:26;;;;;;;20.95;18.50;;;;;;;23.96;67.64;98626.06;5065844;28;20045;-71
2022/07/27 02:56:53;;;;;;;21.27;18.98;;;;;;;24.10;66.94;98631.09;5051392;28;20045;-71
2022/07/27 02:59:20;;;;;;;22.65;19.25;;;;;;;24.17;66.31;98629.34;5033319;28;20493;-69
2022/07/27 03:01:46;;;;;;;22.10;19.15;;;;;;;24.31;65.90;98631.66;5051358;28;20041;-71
2022/07/27 03:04:12;;;;;;;30.50;19.92;;;;;;;24.43;65.51;98630.81;5050949;28;20547;-71
2022/07/27 03:06:38;;;;;;;20.77;18.48;;;;;;;24.60;65.13;98629.72;5050015;28;20041;-70
2022/07/27 03:09:04;;;;;;;26.48;19.70;;;;;;;24.78;64.25;98633.63;5065544;28;20072;-70
2022/07/27 03:11:29;;;;;;;20.30;18.13;;;;;;;25.00;63.89;98634.13;5051313;28;20509;-70
2022/07/27 03:13:55;;;;;;;22.13;18.98;;;;;;;25.27;62.93;98635.19;5066234;28;20122;-71
2022/07/27 03:16:21;;;;;;;27.05;18.88;;;;;;;25.44;61.99;98636.72;5049496;28;20036;-69
2022/07/27 03:18:46;;;;;;;23.50;18.85;;;;;;;25.59;61.68;98636.69;5046533;28;20464;-70
2022/07/27 03:21:12;;;;;;;22.80;19.00;;;;;;;25.77;61.11;98637.06;5066273;28;20052;-69
2022/07/27 03:23:38;;;;;;;26.00;19.20;;;;;;;26.02;60.57;98632.13;5051216;28;20041;-70
2022/07/27 03:26:04;;;;;;;23.45;19.60;;;;;;;26.13;59.57;98628.84;5051344;28;20549;-71
2022/07/27 03:28:30;;;;;;;23.42;19.67;;;;;;;26.16;59.73;98619.97;5049592;28;20040;-70
2022/07/27 03:30:56;;;;;;;25.02;18.67;;;;;;;26.40;59.47;98629.72;5049716;28;20517;-70
2022/07/27 03:33:21;;;;;;;20.95;17.85;;;;;;;26.68;58.58;98627.53;5050578;28;20037;-71
2022/07/27 03:35:47;;;;;;;22.52;19.35;;;;;;;26.84;57.90;98630.13;5051241;28;20135;-71
2022/07/27 03:38:13;;;;;;;23.75;19.77;;;;;;;26.86;57.88;98629.75;5049349;28;20441;-71
2022/07/27 03:40:39;;;;;;;24.20;21.60;;;;;;;26.65;57.97;98635.59;5051306;28;20515;-71
2022/07/27 03:43:04;;;;;;;22.90;20.38;;;;;;;26.63;58.47;98638.72;5016430;28;20064;-71
2022/07/27 03:45:30;;;;;;;25.80;19.98;;;;;;;26.60;58.82;98636.72;5049403;28;20506;-71
2022/07/27 03:47:56;;;;;;;24.75;19.80;;;;;;;26.73;57.95;98637.31;5050840;28;20067;-68
2022/07/27 03:50:22;;;;;;;22.33;19.27;;;;;;;26.72;58.27;98639.25;5050389;28;20395;-70
2022/07/27 03:52:48;;;;;;;22.83;20.33;;;;;;;26.63;58.10;98633.28;5050745;28;20037;-70
2022/07/27 03:55:14;;;;;;;21.63;19.27;;;;;;;26.66;58.25;98637.19;5049402;28;20489;-71
2022/07/27 03:57:39;;;;;;;24.73;20.70;;;;;;;26.70;58.25;98625.22;5050446;28;20075;-71
2022/07/27 04:00:09;;;;;;;24.75;21.05;;;;;;;26.85;58.05;98637.09;5065900;28;20083;-71
2022/07/27 04:02:35;;;;;;;;;;;;;;;26.91;57.59;98638.41;5033842;28;20493;-70
2022/07/27 04:05:00;;;;;;;29.67;21.35;;;;;;;26.94;57.58;98639.59;5050396;28;19950;-70
2022/07/27 04:07:26;;;;;;;24.70;20.00;;;;;;;27.20;57.49;98644.28;5049156;28;20045;-70
2022/07/27 04:09:52;;;;;;;25.38;22.05;;;;;;;27.22;57.23;98643.94;5049236;28;20057;-70
2022/07/27 04:12:17;;;;;;;22.60;20.23;;;;;;;27.24;57.18;98647.88;5050277;28;20045;-71
2022/07/27 04:14:43;;;;;;;22.80;20.38;;;;;;;27.33;57.18;98647.59;5050448;28;20048;-70
2022/07/27 04:17:08;;;;;;;22.83;20.33;;;;;;;27.47;57.05;98650.50;5050849;28;20047;-70
2022/07/27 04:19:34;;;;;;;23.80;21.27;;;;;;;27.57;56.66;98646.38;5051679;28;20041;-70
2022/07/27 04:22:00;;;;;;;23.30;20.73;;;;;;;27.63;57.19;98645.66;5054449;28;20124;-69
2022/07/27 04:24:25;;;;;;;22.73;20.27;;;;;;;27.68;56.25;98651.94;5054373;28;20041;-70
2022/07/27 04:26:51;;;;;;;22.95;20.48;;;;;;;27.73;56.57;98652.41;5052884;28;20048;-71
2022/07/27 04:29:17;;;;;;;23.00;20.33;;;;;;;27.84;55.69;98650.63;5053395;28;20048;-71
2022/07/27 04:31:42;;;;;;;23.60;21.08;;;;;;;27.91;55.70;98649.13;5053969;28;20045;-69
2022/07/27 04:34:08;;;;;;;26.25;19.98;;;;;;;28.03;55.68;98646.16;5052922;28;20056;-71
2022/07/27 04:36:36;;;;;;;22.83;20.55;;;;;;;28.02;55.67;98650.84;5054233;28;20036;-71
2022/07/27 04:39:02;;;;;;;26.23;20.95;;;;;;;28.10;55.96;98651.72;5052616;28;20549;-70
2022/07/27 04:41:28;;;;;;;25.45;21.20;;;;;;;28.15;55.45;98651.38;5054363;28;20044;-71
2022/07/27 04:43:53;;;;;;;25.38;21.05;;;;;;;28.19;55.76;98657.66;5054263;28;20045;-71
2022/07/27 04:46:19;;;;;;;22.60;19.90;;;;;;;28.26;55.28;98656.94;5052667;28;20382;-70
2022/07/27 04:48:45;;;;;;;25.20;21.60;;;;;;;28.35;55.30;98657.41;5053619;28;20162;-70
2022/07/27 04:51:14;;;;;;;22.15;19.65;;;;;;;28.34;54.99;98660.53;5053541;28;20502;-71
2022/07/27 04:53:40;;;;;;;25.70;20.58;;;;;;;28.43;54.71;98664.53;5054140;28;20037;-70
2022/07/27 04:56:07;;;;;;;24.77;20.25;;;;;;;28.44;54.62;98666.13;5054160;28;20071;-69
2022/07/27 04:58:33;;;;;;;25.05;19.85;;;;;;;28.57;54.04;98669.34;5052968;28;20045;-69
2022/07/27 05:00:59;;;;;;;22.80;20.40;;;;;;;28.67;53.60;98649.56;5052017;28;20049;-72
2022/07/27 05:03:24;;;;;;;27.15;19.77;;;;;;;28.76;53.52;98654.72;5032390;28;20041;-71
2022/07/27 05:05:51;;;;;;;26.63;21.00;;;;;;;28.52;54.24;98656.06;5032657;28;20137;-71
2022/07/27 05:08:17;;;;;;;25.45;20.27;;;;;;;28.40;54.18;98665.25;5032642;28;20132;-73
2022/07/27 05:10:43;;;;;;;25.83;21.50;;;;;;;28.23;54.41;98663.91;5049030;28;20140;-66
2022/07/27 05:13:08;;;;;;;24.42;21.70;;;;;;;28.13;54.86;98658.34;5039312;28;20049;-72
2022/07/27 05:15:34;;;;;;;23.88;21.33;;;;;;;28.05;55.08;98658.25;5053386;28;20084;-70
2022/07/27 05:18:00;;;;;;;26.80;21.98;;;;;;;27.98;55.65;98655.47;5044293;28;20131;-70
2022/07/27 05:20:26;;;;;;;28.88;22.67;;;;;;;27.87;55.36;98659.22;5034440;28;20037;-69
2022/07/27 05:22:52;;;;;;;27.08;22.83;;;;;;;27.83;55.11;98659.19;5046104;28;20452;-69
2022/07/27 05:25:18;;;;;;;28.02;24.08;;;;;;;27.81;55.59;98656.03;5052966;28;20049;-68
2022/07/27 05:27:43;;;;;;;30.38;23.77;;;;;;;27.69;55.96;98667.13;5053208;28;20105;-68
2022/07/27 05:30:10;;;;;;;27.77;23.13;;;;;;;27.63;56.12;98664.72;5052732;28;20102;-69
2022/07/27 05:32:36;;;;;;;29.48;24.02;;;;;;;27.56;56.89;98661.09;5047263;28;20112;-69
2022/07/27 05:35:03;;;;;;;28.00;21.95;;;;;;;27.48;56.85;98660.25;5015215;28;20037;-69
2022/07/27 05:37:29;;;;;;;29.85;23.20;;;;;;;27.42;56.93;98655.50;5052360;28;20037;-68
2022/07/27 05:39:54;;;;;;;32.58;23.67;;;;;;;27.38;57.47;98658.16;5051496;28;20111;-63
2022/07/27 05:42:20;;;;;;;34.60;23.40;;;;;;;27.37;57.37;98662.03;5052561;28;20068;-66
2022/07/27 05:44:46;;;;;;;30.88;22.00;;;;;;;27.43;57.62;98662.50;5053100;28;20083;-64
2022/07/27 05:47:12;;;;;;;31.27;23.85;;;;;;;27.38;56.96;98663.59;5052718;28;20441;-63
2022/07/27 05:49:37;;;;;;;34.42;23.90;;;;;;;27.42;57.27;98658.22;5051238;28;20071;-64
2022/07/27 05:52:03;;;;;;;29.10;23.58;;;;;;;27.59;56.97;98663.91;5052780;28;20086;-68
2022/07/27 05:54:29;;;;;;;32.67;23.45;;;;;;;27.57;57.50;98657.25;5052257;28;20358;-64
2022/07/27 05:56:55;;;;;;;32.67;23.80;;;;;;;27.50;56.91;98659.88;5044622;28;20047;-66
2022/07/27 05:59:20;;;;;;;26.73;22.63;;;;;;;27.46;57.59;98659.81;5048016;28;20045;-65
2022/07/27 06:01:48;;;;;;;26.35;23.40;;;;;;;27.52;57.79;98658.34;5046416;28;20102;-64
2022/07/27 06:04:16;;;;;;;32.88;23.50;;;;;;;27.56;56.98;98658.38;5015970;28;20037;-63
2022/07/27 06:09:25;;;;;;;28.45;23.38;;;;;;;27.53;55.93;98657.22;5042952;28;20418;-64
2022/07/27 06:11:51;;;;;;;29.75;23.90;;;;;;;27.56;56.13;98651.03;5049616;28;20033;-68
2022/07/27 06:14:17;;;;;;;31.30;23.90;;;;;;;27.58;56.65;98658.81;5047789;28;20049;-67
2022/07/27 06:16:42;;;;;;;28.27;23.80;;;;;;;27.55;55.90;98654.09;5049648;28;20049;-66
2022/07/27 06:19:09;;;;;;;29.30;22.95;;;;;;;27.58;55.95;98653.38;5050389;28;20106;-64
2022/07/27 06:21:34;;;;;;;31.77;23.10;;;;;;;27.68;55.98;98647.28;5051019;28;20049;-64
2022/07/27 06:24:00;;;;;;;32.85;23.08;;;;;;;27.77;56.06;98655.97;5050230;28;20544;-65
2022/07/27 06:26:26;;;;;;;29.48;22.90;;;;;;;27.75;55.69;98658.25;5050120;28;20060;-66
2022/07/27 06:28:57;;;;;;;33.83;23.23;;;;;;;27.77;55.73;98655.97;5049785;28;20072;-66
2022/07/27 06:31:25;;;;;;;33.55;24.33;;;;;;;27.84;55.25;98658.00;5048179;28;21060;-64
2022/07/27 06:33:52;;;;;;;27.63;22.67;;;;;;;27.96;54.71;98663.22;5044357;28;20456;-65
2022/07/27 06:36:18;;;;;;;29.80;22.48;;;;;;;27.98;54.43;98657.41;5009367;28;20038;-64
2022/07/27 06:38:44;;;;;;;26.05;21.75;;;;;;;27.94;54.00;98668.25;5036721;28;20060;-62
2022/07/27 06:41:09;;;;;;;28.13;21.10;;;;;;;28.00;53.64;98655.09;5048946;28;20064;-64
2022/07/27 06:43:35;;;;;;;29.02;21.85;;;;;;;28.04;52.45;98664.88;5043736;28;20037;-64
2022/07/27 06:46:02;;;;;;;21.83;19.17;;;;;;;28.11;51.62;98666.13;5046340;28;20049;-64
2022/07/27 06:48:27;;;;;;;26.30;21.88;;;;;;;28.00;52.05;98660.53;5044939;28;20465;-64
2022/07/27 06:50:53;;;;;;;23.95;19.92;;;;;;;27.87;52.18;98670.88;5034802;28;20053;-65
2022/07/27 06:53:19;;;;;;;28.05;20.42;;;;;;;27.89;52.46;98670.53;5028420;28;20076;-64
2022/07/27 06:55:45;;;;;;;26.05;20.95;;;;;;;27.89;51.96;98671.31;5031242;28;20047;-64
2022/07/27 06:58:11;;;;;;;23.38;19.67;;;;;;;27.95;51.73;98674.50;5030015;28;20120;-65
2022/07/27 07:00:38;;;;;;;24.33;20.05;;;;;;;27.98;50.99;98679.19;5050867;28;20566;-65
2022/07/27 07:03:05;;;;;;;27.10;20.33;;;;;;;28.00;51.27;98683.13;5048372;28;20426;-67
2022/07/27 07:05:32;;;;;;;23.35;20.38;;;;;;;27.95;51.14;98680.72;5046743;28;20103;-64
2022/07/27 07:07:57;;;;;;;21.73;19.55;;;;;;;27.94;50.98;98676.41;5049275;28;20040;-65
2022/07/27 07:10:24;;;;;;;22.05;19.60;;;;;;;27.96;50.46;98676.84;5049899;28;20057;-65
2022/07/27 07:12:54;;;;;;;21.38;19.17;;;;;;;27.92;50.25;98683.41;5048711;28;20048;-65
2022/07/27 07:15:25;;;;;;;21.67;18.85;;;;;;;27.98;50.36;98677.25;5038132;28;20049;-65
2022/07/27 07:17:52;;;;;;;21.20;18.73;;;;;;;28.11;50.46;98679.72;5050525;28;20045;-64
2022/07/27 07:20:17;;;;;;;23.10;19.40;;;;;;;28.18;50.09;98672.44;5049821;28;20044;-63
2022/07/27 07:22:43;;;;;;;25.98;19.92;;;;;;;28.24;50.67;98673.66;5049359;28;20033;-67
2022/07/27 07:25:09;;;;;;;23.02;19.77;;;;;;;28.23;50.04;98674.03;5049395;28;20045;-63
2022/07/27 07:27:36;;;;;;;19.73;17.75;;;;;;;28.21;50.12;98677.13;5032407;28;20037;-63
2022/07/27 07:30:03;;;;;;;22.77;19.17;;;;;;;28.25;49.17;98672.50;5046382;28;20049;-69
2022/07/27 07:32:29;;;;;;;22.88;18.67;;;;;;;28.35;49.69;98670.25;5055880;28;20061;-65
2022/07/27 07:34:55;;;;;;;19.75;17.65;;;;;;;28.43;48.60;98664.53;5029747;28;20069;-65
2022/07/27 07:37:21;;;;;;;29.63;18.70;;;;;;;28.55;48.19;98679.06;5030533;28;20079;-65
2022/07/27 07:39:47;;;;;;;23.80;18.25;;;;;;;28.55;48.16;98681.78;5030792;28;20106;-65
2022/07/27 07:42:13;;;;;;;22.75;18.52;;;;;;;28.50;48.72;98674.72;5045875;28;20128;-65
2022/07/27 07:44:39;;;;;;;26.40;19.50;;;;;;;28.56;48.40;98673.25;5030584;28;20144;-65
2022/07/27 07:47:05;;;;;;;21.10;18.75;;;;;;;28.68;48.03;98674.91;5029526;28;20037;-64
2022/07/27 07:49:31;;;;;;;23.70;18.30;;;;;;;28.69;48.60;98677.25;5030824;28;20317;-65
2022/07/27 07:51:57;;;;;;;25.05;18.40;;;;;;;28.73;48.86;98683.50;5029702;28;20456;-64
2022/07/27 07:54:22;;;;;;;22.27;18.38;;;;;;;28.78;48.51;98676.94;5031689;28;20049;-64
2022/07/27 07:56:48;;;;;;;22.45;18.60;;;;;;;28.69;48.39;98677.25;5034907;28;20080;-65
2022/07/27 07:59:13;;;;;;;23.70;18.92;;;;;;;28.66;48.62;98678.00;5049884;28;20061;-65
2022/07/27 08:01:39;;;;;;;26.88;19.13;;;;;;;28.54;48.46;98681.00;5034826;28;20056;-65
2022/07/27 08:04:05;;;;;;;22.95;19.38;;;;;;;28.53;48.17;98679.44;5033326;28;20491;-64
2022/07/27 08:06:31;;;;;;;25.33;20.15;;;;;;;28.58;48.02;98681.03;5034909;28;20066;-64
2022/07/27 08:08:57;;;;;;;21.23;18.98;;;;;;;28.64;48.16;98672.13;5034568;28;20041;-64
2022/07/27 08:11:23;;;;;;;23.90;20.02;;;;;;;28.66;47.53;98669.81;5033479;28;20537;-65
2022/07/27 08:13:49;;;;;;;22.25;19.02;;;;;;;28.71;47.30;98669.50;5016454;28;20460;-64
2022/07/27 08:16:15;;;;;;;21.23;19.10;;;;;;;28.72;46.79;98679.22;5032923;28;20062;-65
2022/07/27 08:18:42;;;;;;;23.77;18.40;;;;;;;28.76;47.39;98676.53;5033128;28;20446;-65
2022/07/27 08:21:07;;;;;;;24.15;19.80;;;;;;;28.84;46.98;98672.72;5034671;28;20116;-65
2022/07/27 08:23:33;;;;;;;24.70;18.40;;;;;;;28.85;45.73;98668.81;5016346;28;20192;-66
2022/07/27 08:25:59;;;;;;;20.00;17.77;;;;;;;28.84;46.16;98671.94;5034461;28;20056;-65
2022/07/27 08:28:25;;;;;;;20.52;18.30;;;;;;;28.85;45.92;98677.00;5033742;28;20042;-65
2022/07/27 08:30:51;;;;;;;23.73;18.90;;;;;;;29.09;45.17;98675.69;5033854;28;20053;-65
2022/07/27 08:33:16;;;;;;;21.52;19.33;;;;;;;29.30;44.91;98672.31;5034133;28;20049;-65
2022/07/27 08:35:43;;;;;;;20.55;18.30;;;;;;;29.38;44.94;98673.13;5049536;28;20045;-65
2022/07/27 08:38:09;;;;;;;23.92;19.85;;;;;;;29.29;45.11;98678.13;5033791;28;20041;-65
2022/07/27 08:40:36;;;;;;;23.55;19.67;;;;;;;29.14;44.97;98675.31;5033626;28;20041;-65
2022/07/27 08:43:03;;;;;;;21.50;18.88;;;;;;;29.07;45.76;98675.25;5033787;28;20566;-65
2022/07/27 08:45:29;;;;;;;19.67;17.50;;;;;;;28.93;44.54;98669.66;5016216;28;20045;-67
2022/07/27 08:47:55;;;;;;;20.88;17.55;;;;;;;28.87;45.24;98666.50;5033681;28;20502;-63
2022/07/27 08:50:22;;;;;;;24.90;19.02;;;;;;;28.84;45.18;98666.47;5033503;28;20061;-66
2022/07/27 08:53:09;;;;;;;21.15;18.85;;;;;;;28.76;45.55;98665.63;5032723;28;20033;-65
2022/07/27 08:55:40;;;;;;;24.35;19.02;;;;;;;28.66;46.00;98675.28;5033929;28;20160;-65
2022/07/27 08:58:07;;;;;;;24.65;18.98;;;;;;;28.55;45.42;98671.66;5033548;28;20033;-65
2022/07/27 09:00:35;;;;;;;30.00;18.60;;;;;;;28.57;45.88;98674.81;5033893;28;20053;-65
2022/07/27 09:03:01;;;;;;;21.23;18.35;;;;;;;28.55;45.56;98671.66;5033732;28;20041;-65
2022/07/27 09:05:27;;;;;;;22.38;18.38;;;;;;;28.86;45.77;98664.16;5032583;28;20041;-65
2022/07/27 09:07:53;;;;;;;21.70;19.48;;;;;;;29.05;45.06;98660.44;5033351;28;20399;-64
2022/07/27 09:10:33;;;;;;;23.67;19.73;;;;;;;29.08;45.04;98665.91;5048823;28;20056;-65
2022/07/27 09:12:59;;;;;;;24.75;19.50;;;;;;;28.96;44.59;98666.19;5033481;28;20044;-65
2022/07/27 09:15:25;;;;;;;20.52;18.27;;;;;;;28.87;45.53;98673.91;4999320;28;20045;-65
2022/07/27 09:17:51;;;;;;;23.95;19.42;;;;;;;28.81;46.18;98675.41;5048462;28;20045;-66
2022/07/27 09:20:19;;;;;;;22.42;19.50;;;;;;;28.76;46.13;98679.25;5032874;28;20049;-65
2022/07/27 09:22:53;;;;;;;25.38;20.48;;;;;;;28.72;46.45;98673.78;5033131;28;20041;-65
2022/07/27 09:25:29;;;;;;;21.98;19.05;;;;;;;28.76;46.36;98674.56;5048573;28;20125;-65
2022/07/27 09:27:57;;;;;;;23.90;20.30;;;;;;;28.79;46.37;98678.50;5048573;28;20350;-65
2022/07/27 09:30:24;;;;;;;25.45;19.58;;;;;;;28.94;46.15;98677.47;5033153;28;20060;-65
2022/07/27 09:32:56;;;;;;;25.40;21.05;;;;;;;29.17;45.87;98673.78;5033208;28;20116;-66
2022/07/27 09:35:28;;;;;;;24.00;19.98;;;;;;;29.35;45.36;98674.66;5032772;28;20049;-65
2022/07/27 09:37:56;;;;;;;28.90;19.35;;;;;;;29.46;46.11;98672.00;5031716;28;20148;-65
2022/07/27 09:40:23;;;;;;;24.38;20.25;;;;;;;29.55;45.56;98675.19;5032951;28;20060;-67
2022/07/27 09:43:11;;;;;;;26.15;20.23;;;;;;;29.61;46.38;98681.06;5032937;28;20494;-64
2022/07/27 09:45:38;;;;;;;28.77;21.30;;;;;;;29.56;45.25;98686.88;5032883;28;20136;-65
2022/07/27 09:48:10;;;;;;;22.67;20.17;;;;;;;29.56;44.99;98679.50;5031198;28;20128;-65
2022/07/27 09:50:40;;;;;;;23.35;20.80;;;;;;;29.57;45.09;98681.06;5032912;28;20045;-67
2022/07/27 09:53:20;;;;;;;25.58;21.00;;;;;;;29.56;46.21;98674.03;5032563;28;20136;-64
2022/07/27 09:55:46;;;;;;;;;;;;;;;29.52;45.25;98670.47;5031926;28;20069;-64
2022/07/27 09:58:12;;;;;;;25.25;20.58;;;;;;;29.49;45.32;98665.78;5046397;28;19964;-65
2022/07/27 10:00:37;;;;;;;24.08;20.55;;;;;;;29.51;45.47;98665.41;5047916;28;20584;-65
2022/07/27 10:03:03;;;;;;;26.67;21.92;;;;;;;29.53;46.42;98671.25;5031306;28;20052;-64
2022/07/27 10:05:29;;;;;;;23.15;20.10;;;;;;;29.68;45.30;98666.69;5032736;28;20041;-65
2022/07/27 10:07:55;;;;;;;22.80;20.58;;;;;;;29.88;44.47;98663.28;5031430;28;20402;-65
2022/07/27 10:10:22;;;;;;;22.83;20.35;;;;;;;30.03;44.50;98664.13;5032450;28;20095;-65
2022/07/27 10:12:48;;;;;;;23.13;19.63;;;;;;;30.18;42.73;98673.16;5031009;28;20052;-65
2022/07/27 10:15:14;;;;;;;27.08;20.55;;;;;;;30.41;42.60;98669.31;5031002;28;20049;-65
2022/07/27 10:17:41;;;;;;;25.67;21.02;;;;;;;30.67;41.96;98665.44;5047493;28;20033;-65
2022/07/27 10:20:08;;;;;;;22.65;19.73;;;;;;;30.99;41.00;98666.25;5032226;28;20054;-65
2022/07/27 10:22:51;;;;;;;25.30;19.80;;;;;;;31.18;40.60;98665.09;5030739;28;20056;-65
2022/07/27 10:25:20;;;;;;;27.70;21.00;;;;;;;30.95;42.75;98664.72;5031879;28;20053;-65
2022/07/27 10:27:48;;;;;;;24.80;20.50;;;;;;;30.93;42.06;98661.56;5030908;28;20045;-65
2022/07/27 10:30:18;;;;;;;25.33;20.98;;;;;;;30.96;42.11;98661.56;5031884;28;20566;-66
2022/07/27 10:32:45;;;;;;;23.60;20.92;;;;;;;30.82;42.11;98666.25;5031775;28;20049;-64
2022/07/27 10:35:33;;;;;;;23.67;19.20;;;;;;;30.72;42.76;98659.59;5030445;28;20052;-64
2022/07/27 10:38:16;;;;;;;23.38;20.80;;;;;;;30.71;42.61;98666.25;5047030;28;20037;-65
2022/07/27 10:40:43;;;;;;;25.48;21.85;;;;;;;30.35;45.69;98662.66;5032203;28;20037;-66
2022/07/27 10:43:16;;;;;;;24.35;20.95;;;;;;;30.10;45.60;98674.28;5031880;28;20042;-65
2022/07/27 10:45:44;;;;;;;23.40;21.02;;;;;;;29.75;47.12;98678.44;5032161;28;20068;-65
2022/07/27 10:48:34;;;;;;;22.98;20.55;;;;;;;29.61;47.80;98670.13;5031534;28;20033;-65
2022/07/27 10:50:59;;;;;;;;;;;;;;;29.73;47.01;98666.31;5032338;28;20132;-65
2022/07/27 10:53:34;;;;;;;24.75;21.05;;;;;;;29.85;47.21;98663.25;5031866;28;20023;-65
2022/07/27 10:56:00;;;;;;;27.70;22.10;;;;;;;29.93;46.98;98664.84;5050786;28;20041;-66
2022/07/27 10:58:28;;;;;;;23.42;20.90;;;;;;;30.25;46.01;98666.94;5049431;28;20041;-63
2022/07/27 11:01:08;;;;;;;24.65;21.50;;;;;;;30.24;44.64;98657.19;5049015;28;20052;-66
2022/07/27 11:03:38;;;;;;;21.77;19.65;;;;;;;30.35;43.68;98657.19;5031700;28;20417;-67
2022/07/27 11:06:09;;;;;;;22.10;19.77;;;;;;;30.30;43.17;98648.22;5048032;28;20135;-67
2022/07/27 11:08:42;;;;;;;22.15;18.95;;;;;;;30.26;42.74;98650.16;5049514;28;20048;-66
2022/07/27 11:11:13;;;;;;;21.27;19.00;;;;;;;30.35;42.26;98655.25;5048434;28;20045;-66
2022/07/27 11:13:39;;;;;;;28.02;20.50;;;;;;;30.37;42.52;98657.59;5050134;28;20051;-66
2022/07/27 11:16:10;;;;;;;23.83;19.40;;;;;;;30.19;44.36;98663.00;5050546;28;20141;-62
2022/07/27 11:18:40;;;;;;;25.27;19.92;;;;;;;30.01;44.67;98663.72;5044468;28;20044;-65